Time;durP1;ratioP1;P1;durP2;ratioP2;P2;SDS_P1;SDS_P2;PMS_P1;PMS_P2;Temp;Humidity;BMP_temperature;BMP_pressure;BME280_temperature;BME280_humidity;BME280_pressure;Samples;Min_cycle;Max_cycle;Signal;HPM_P1;HPM_P2
2021/07/21 00:01:14;;;;;;;;;13.25;13.00;;;;;23.15;49.62;101736.38;5017670;28;45245;-89
2021/07/21 00:03:39;;;;;;;;;14.00;11.75;;;;;23.11;49.68;101730.44;4997076;28;45840;-90
2021/07/21 00:06:05;;;;;;;;;16.75;13.25;;;;;23.12;49.96;101737.44;4997304;28;45384;-89
2021/07/21 00:08:30;;;;;;;;;14.75;14.00;;;;;23.06;50.11;101732.59;5003298;28;45303;-89
2021/07/21 00:13:40;;;;;;;;;15.00;14.33;;;;;23.00;50.02;101731.22;5017294;28;45695;-89
2021/07/21 00:16:17;;;;;;;;;15.00;13.67;;;;;22.97;50.56;101736.75;5016654;28;45424;-89
2021/07/21 00:21:10;;;;;;;;;15.00;14.00;;;;;22.87;50.23;101725.94;5017075;28;45555;-90
2021/07/21 00:23:38;;;;;;;;;14.00;14.00;;;;;22.86;50.34;101732.22;5020422;28;45489;-90
2021/07/21 00:26:04;;;;;;;;;14.33;14.00;;;;;22.82;49.99;101730.78;5036232;28;45284;-89
2021/07/21 00:28:29;;;;;;;;;16.00;13.75;;;;;22.77;50.56;101731.09;5015231;28;45395;-89
2021/07/21 00:30:55;;;;;;;;;15.25;13.75;;;;;22.75;50.95;101729.50;5036856;28;45416;-90
2021/07/21 00:33:20;;;;;;;;;12.75;12.50;;;;;22.71;50.87;101734.19;5034611;28;46162;-89
2021/07/21 00:35:46;;;;;;;;;12.25;11.75;;;;;22.67;50.61;101736.22;5012390;28;45284;-90
2021/07/21 00:38:12;;;;;;;;;12.25;12.25;;;;;22.66;50.88;101737.19;4996626;28;45351;-90
2021/07/21 00:40:38;;;;;;;;;15.50;13.75;;;;;22.65;50.92;101745.25;4996895;28;45416;-90
2021/07/21 00:43:03;;;;;;;;;15.00;12.00;;;;;22.61;50.83;101733.16;4978744;28;46914;-90
2021/07/21 00:45:29;;;;;;;;;15.75;13.25;;;;;22.58;51.07;101736.88;5018711;28;45435;-88
2021/07/21 00:47:54;;;;;;;;;16.25;14.00;;;;;22.55;51.14;101737.09;5036605;28;45269;-89
2021/07/21 00:50:20;;;;;;;;;15.00;13.75;;;;;22.51;51.29;101743.56;5036549;28;44755;-89
2021/07/21 00:52:45;;;;;;;;;15.25;13.75;;;;;22.50;51.19;101744.50;5036209;28;46499;-90
2021/07/21 00:55:15;;;;;;;;;15.75;14.25;;;;;22.49;51.26;101742.81;5026782;28;45510;-90
2021/07/21 00:57:41;;;;;;;;;12.00;11.50;;;;;22.45;51.45;101742.16;5033995;28;45280;-89
2021/07/21 01:00:19;;;;;;;;;14.25;11.75;;;;;22.42;51.85;101737.09;5015088;28;45638;-92
2021/07/21 01:02:49;;;;;;;;;14.25;12.25;;;;;22.41;51.24;101749.50;5016556;28;45642;-90
2021/07/21 01:05:20;;;;;;;;;15.00;13.25;;;;;22.38;51.39;101740.91;5019121;28;45161;-90
2021/07/21 01:07:47;;;;;;;;;15.25;14.25;;;;;22.36;51.13;101745.50;5029677;28;45462;-90
2021/07/21 01:10:14;;;;;;;;;14.25;12.00;;;;;22.32;51.95;101744.88;5019793;28;45656;-90
2021/07/21 01:12:48;;;;;;;;;17.00;14.50;;;;;22.29;51.90;101740.63;5019166;28;46818;-89
2021/07/21 01:15:16;;;;;;;;;14.25;13.75;;;;;22.27;51.48;101747.00;5019634;28;45308;-89
2021/07/21 01:17:52;;;;;;;;;14.25;13.25;;;;;22.23;52.06;101753.44;5024034;28;45367;-90
2021/07/21 01:20:38;;;;;;;;;16.25;15.00;;;;;22.20;52.14;101746.56;5019946;28;45288;-89
2021/07/21 01:23:26;;;;;;;;;17.25;14.75;;;;;22.15;52.02;101746.88;5019397;28;45527;-90
2021/07/21 01:26:01;;;;;;;;;14.75;13.00;;;;;22.12;52.40;101743.59;5017841;28;45427;-90
2021/07/21 01:28:28;;;;;;;;;12.00;12.00;;;;;22.08;52.54;101750.91;5028947;28;44858;-89
2021/07/21 01:30:55;;;;;;;;;16.25;14.75;;;;;22.08;52.17;101750.06;5038298;28;45390;-89
2021/07/21 01:33:22;;;;;;;;;18.00;15.75;;;;;22.02;52.68;101738.94;5039142;28;45486;-89
2021/07/21 01:36:02;;;;;;;;;14.50;13.00;;;;;22.00;52.44;101743.47;5039420;28;45366;-89
2021/07/21 01:38:35;;;;;;;;;14.25;13.75;;;;;21.99;52.93;101748.91;5006266;28;45494;-89
2021/07/21 01:41:07;;;;;;;;;13.50;12.25;;;;;21.94;52.54;101748.38;5001548;28;45566;-89
2021/07/21 01:43:34;;;;;;;;;19.75;14.50;;;;;21.91;52.93;101746.78;5018408;28;46653;-90
2021/07/21 01:46:01;;;;;;;;;16.75;16.50;;;;;21.90;52.71;101745.09;5019191;28;45564;-89
2021/07/21 01:48:31;;;;;;;;;13.25;13.00;;;;;21.86;52.44;101744.41;5018746;28;45487;-89
2021/07/21 01:50:58;;;;;;;;;17.00;15.33;;;;;21.85;52.69;101749.84;5039477;28;45300;-89
2021/07/21 01:53:26;;;;;;;;;17.50;14.75;;;;;21.81;52.97;101748.34;5038909;28;45423;-90
2021/07/21 01:55:53;;;;;;;;;16.50;14.50;;;;;21.79;52.73;101748.44;5037463;28;46379;-90
2021/07/21 01:58:20;;;;;;;;;15.33;15.33;;;;;21.74;52.58;101747.91;5038750;28;45469;-90
2021/07/21 02:00:49;;;;;;;;;15.25;13.00;;;;;21.72;53.00;101755.97;5033914;28;45980;-89
2021/07/21 02:03:15;;;;;;;;;13.00;13.00;;;;;21.69;53.19;101752.63;5038851;28;45470;-89
2021/07/21 02:05:42;;;;;;;;;14.00;14.00;;;;;21.68;53.18;101756.25;5038681;28;45615;-89
2021/07/21 02:08:08;;;;;;;;;16.00;15.00;;;;;21.65;52.83;101756.47;5028648;28;45483;-89
2021/07/21 02:10:35;;;;;;;;;14.50;13.25;;;;;21.62;53.57;101765.47;5024689;28;45447;-89
2021/07/21 02:13:07;;;;;;;;;14.75;13.25;;;;;21.60;53.49;101756.75;5038124;28;45592;-90
2021/07/21 02:15:33;;;;;;;;;17.00;15.00;;;;;21.55;53.19;101757.06;5020589;28;45418;-90
2021/07/21 02:17:59;;;;;;;;;15.75;14.50;;;;;21.53;53.32;101761.63;5007233;28;45475;-90
2021/07/21 02:20:26;;;;;;;;;18.00;16.00;;;;;21.49;53.81;101763.63;5015983;28;45225;-90
2021/07/21 02:22:52;;;;;;;;;17.50;16.75;;;;;21.46;53.36;101762.97;4998777;28;46381;-90
2021/07/21 02:25:21;;;;;;;;;17.75;15.25;;;;;21.45;53.68;101762.16;4998689;28;45379;-89
2021/07/21 02:27:46;;;;;;;;;16.75;16.25;;;;;21.42;53.38;101764.16;4997473;28;45689;-89
2021/07/21 02:30:13;;;;;;;;;17.00;14.75;;;;;21.41;53.62;101765.94;4997472;28;45317;-90
2021/07/21 02:32:52;;;;;;;;;14.50;13.50;;;;;21.39;53.79;101769.63;5024823;28;47237;-90
2021/07/21 02:35:21;;;;;;;;;12.25;12.25;;;;;21.34;53.65;101765.47;5016682;28;45242;-89
2021/07/21 02:37:47;;;;;;;;;16.50;16.50;;;;;21.33;54.05;101766.44;5018825;28;45339;-89
2021/07/21 02:40:13;;;;;;;;;17.75;17.00;;;;;21.33;53.87;101768.22;5000740;28;45696;-90
2021/07/21 02:42:38;;;;;;;;;18.25;16.00;;;;;21.31;53.99;101767.47;5023167;28;47905;-89
2021/07/21 02:45:04;;;;;;;;;13.25;11.50;;;;;21.27;54.42;101758.91;5038365;28;45372;-89
2021/07/21 02:47:30;;;;;;;;;18.75;18.50;;;;;21.25;54.04;101757.31;5038354;28;45328;-89
2021/07/21 02:49:55;;;;;;;;;15.00;14.75;;;;;21.23;53.94;101763.56;5020520;28;45387;-90
2021/07/21 02:52:21;;;;;;;;;17.00;17.00;;;;;21.21;54.17;101760.13;5016463;28;47243;-89
2021/07/21 02:54:57;;;;;;;;;18.00;17.25;;;;;21.18;54.00;101759.50;5052533;28;45352;-90
2021/07/21 02:57:28;;;;;;;;;14.75;14.00;;;;;21.17;54.41;101749.84;5037884;28;45302;-90
2021/07/21 02:59:56;;;;;;;;;17.25;14.25;;;;;21.12;54.17;101751.97;5037947;28;45220;-89
2021/07/21 03:02:26;;;;;;;;;14.00;13.25;;;;;21.13;53.86;101769.53;5037800;28;46460;-89
2021/07/21 03:04:55;;;;;;;;;17.50;15.75;;;;;21.10;54.21;101757.34;5032295;28;45384;-89
2021/07/21 03:07:23;;;;;;;;;17.00;17.00;;;;;21.05;54.68;101754.13;5037931;28;45255;-90
2021/07/21 03:09:52;;;;;;;;;18.25;15.25;;;;;21.06;54.65;101769.09;5038152;28;45390;-89
2021/07/21 03:12:18;;;;;;;;;18.75;18.00;;;;;21.03;54.43;101766.63;5036097;28;48353;-90
2021/07/21 03:14:44;;;;;;;;;15.25;15.25;;;;;20.99;54.72;101765.97;5032663;28;45403;-89
2021/07/21 03:17:13;;;;;;;;;18.25;16.50;;;;;20.96;54.47;101761.75;5029943;28;44897;-89
2021/07/21 03:19:43;;;;;;;;;17.00;16.75;;;;;20.93;55.30;101767.22;5017875;28;45402;-90
2021/07/21 03:22:11;;;;;;;;;16.75;16.75;;;;;20.91;55.13;101771.75;4999775;28;47626;-88
2021/07/21 03:24:37;;;;;;;;;18.00;15.50;;;;;20.90;54.75;101771.84;4998095;28;46269;-89
2021/07/21 03:27:04;;;;;;;;;14.50;14.50;;;;;20.88;55.29;101777.25;5016586;28;45446;-89
2021/07/21 03:29:31;;;;;;;;;15.75;15.25;;;;;20.86;55.29;101771.22;4999907;28;45292;-89
2021/07/21 03:31:58;;;;;;;;;15.75;15.00;;;;;20.82;55.09;101772.31;4999396;28;47622;-90
2021/07/21 03:34:24;;;;;;;;;16.75;16.50;;;;;20.81;55.26;101781.19;5017175;28;45396;-89
2021/07/21 03:36:53;;;;;;;;;16.75;16.25;;;;;20.80;55.48;101779.50;5030243;28;45304;-89
2021/07/21 03:39:19;;;;;;;;;18.50;17.75;;;;;20.77;55.34;101780.53;5037375;28;45335;-89
2021/07/21 03:41:48;;;;;;;;;20.75;16.25;;;;;20.76;55.24;101784.13;5018963;28;46442;-89
2021/07/21 03:44:18;;;;;;;;;18.00;15.50;;;;;20.73;55.57;101779.03;5035787;28;45769;-90
2021/07/21 03:46:43;;;;;;;;;17.75;16.75;;;;;20.70;55.60;101782.72;5025471;28;45324;-90
2021/07/21 03:49:09;;;;;;;;;19.75;17.75;;;;;20.69;55.57;101782.84;4999508;28;45491;-90
2021/07/21 03:51:37;;;;;;;;;19.00;17.50;;;;;20.68;55.83;101786.41;5017019;28;45481;-90
2021/07/21 03:54:09;;;;;;;;;16.00;16.00;;;;;20.66;55.93;101777.72;5016794;28;44818;-90
2021/07/21 03:56:41;;;;;;;;;18.75;16.00;;;;;20.65;55.30;101783.97;5015829;28;45383;-90
2021/07/21 03:59:07;;;;;;;;;22.25;20.50;;;;;20.59;55.57;101771.97;5017528;28;44736;-89
2021/07/21 04:01:36;;;;;;;;;18.00;15.50;;;;;20.58;55.87;101775.56;5015675;28;47129;-89
2021/07/21 04:04:04;;;;;;;;;21.00;17.25;;;;;20.56;55.69;101777.44;5017204;28;45412;-90
2021/07/21 04:06:34;;;;;;;;;17.75;17.50;;;;;20.54;55.64;101785.47;5013570;28;44715;-88
2021/07/21 04:09:09;;;;;;;;;18.00;18.00;;;;;20.52;55.76;101790.03;5031871;28;44728;-88
2021/07/21 04:11:36;;;;;;;;;21.50;17.75;;;;;20.51;55.94;101790.94;5025899;28;46713;-88
2021/07/21 04:14:08;;;;;;;;;20.50;16.75;;;;;20.48;56.04;101788.50;4998882;28;45385;-90
2021/07/21 04:16:35;;;;;;;;;19.25;17.25;;;;;20.45;55.65;101785.19;5011799;28;45441;-90
2021/07/21 04:19:06;;;;;;;;;26.00;21.00;;;;;20.47;56.09;101794.75;5017066;28;45402;-91
2021/07/21 04:21:33;;;;;;;;;19.75;19.75;;;;;20.45;56.06;101793.97;5012222;28;47387;-90
2021/07/21 04:24:00;;;;;;;;;21.25;19.00;;;;;20.45;56.21;101799.25;5006268;28;45374;-91
2021/07/21 04:26:26;;;;;;;;;22.25;20.75;;;;;20.43;56.47;101795.88;5017596;28;45324;-90
2021/07/21 04:28:53;;;;;;;;;19.75;16.75;;;;;20.40;56.62;101791.63;5000313;28;45356;-90
2021/07/21 04:31:26;;;;;;;;;21.75;19.50;;;;;20.39;56.64;101802.28;5035420;28;47303;-90
2021/07/21 04:33:53;;;;;;;;;21.75;20.00;;;;;20.36;57.25;101803.31;5027746;28;45435;-90
2021/07/21 04:36:21;;;;;;;;;17.50;16.75;;;;;20.36;57.42;101799.84;4998730;28;45226;-90
2021/07/21 04:38:47;;;;;;;;;20.50;18.75;;;;;20.37;57.39;101805.00;5016943;28;45294;-90
2021/07/21 04:41:13;;;;;;;;;20.00;19.25;;;;;20.35;57.22;101801.63;5032592;28;47033;-90
2021/07/21 04:43:39;;;;;;;;;23.25;21.00;;;;;20.35;57.60;101800.75;5036450;28;45681;-90
2021/07/21 04:46:05;;;;;;;;;18.00;17.00;;;;;20.33;57.59;101803.50;5001215;28;45363;-90
2021/07/21 04:48:31;;;;;;;;;20.25;17.75;;;;;20.32;57.98;101801.78;5014279;28;45335;-90
2021/07/21 04:50:57;;;;;;;;;24.75;21.25;;;;;20.33;57.92;101814.09;5023906;28;45402;-90
2021/07/21 04:53:23;;;;;;;;;20.25;18.50;;;;;20.33;57.43;101808.81;5036341;28;45502;-89
2021/07/21 04:55:48;;;;;;;;;20.50;17.75;;;;;20.34;58.31;101813.13;5020480;28;45279;-90
2021/07/21 04:58:15;;;;;;;;;19.25;17.75;;;;;20.34;57.65;101813.13;5016538;28;45268;-89
2021/07/21 05:00:40;;;;;;;;;21.75;21.25;;;;;20.34;58.06;101810.50;4997294;28;48241;-89
2021/07/21 05:03:06;;;;;;;;;22.25;21.25;;;;;20.35;58.64;101813.97;5027518;28;45342;-88
2021/07/21 05:05:38;;;;;;;;;19.75;19.00;;;;;20.34;58.23;101815.78;5012156;28;45406;-89
2021/07/21 05:08:05;;;;;;;;;24.00;21.50;;;;;20.35;58.20;101825.41;5020423;28;45233;-89
2021/07/21 05:10:31;;;;;;;;;20.50;20.25;;;;;20.40;57.92;101833.03;5027223;28;46414;-89
2021/07/21 05:12:57;;;;;;;;;22.50;20.00;;;;;20.38;58.51;101827.88;5001128;28;45413;-89
2021/07/21 05:15:23;;;;;;;;;22.25;19.25;;;;;20.38;58.04;101830.53;5001152;28;45446;-89
2021/07/21 05:17:48;;;;;;;;;25.25;21.50;;;;;20.44;58.73;101837.22;5016208;28;45418;-88
2021/07/21 05:20:14;;;;;;;;;28.75;22.50;;;;;20.45;58.04;101838.91;5017136;28;45407;-89
2021/07/21 05:22:45;;;;;;;;;20.00;19.75;;;;;20.44;58.27;101837.22;5006858;28;45384;-90
2021/07/21 05:25:12;;;;;;;;;19.75;18.25;;;;;20.45;58.14;101835.44;4997859;28;45298;-89
2021/07/21 05:27:37;;;;;;;;;24.50;23.50;;;;;20.49;58.22;101845.72;4998311;28;45533;-89
2021/07/21 05:30:05;;;;;;;;;21.25;20.25;;;;;20.52;57.99;101850.84;5003812;28;45462;-88
2021/07/21 05:32:30;;;;;;;;;20.75;17.00;;;;;20.54;57.90;101850.72;5013479;28;45501;-89
2021/07/21 05:34:55;;;;;;;;;22.75;20.25;;;;;20.58;58.14;101854.88;4995834;28;45362;-89
2021/07/21 05:37:21;;;;;;;;;24.25;21.75;;;;;20.59;58.45;101853.94;5016060;28;45558;-89
2021/07/21 05:39:46;;;;;;;;;21.25;20.75;;;;;20.63;58.30;101855.44;5013692;28;45482;-90
2021/07/21 05:42:12;;;;;;;;;28.75;20.50;;;;;20.67;57.93;101858.75;5010353;28;45489;-89
2021/07/21 05:44:38;;;;;;;;;22.00;20.25;;;;;20.70;58.06;101858.56;4990357;28;45329;-89
2021/07/21 05:47:04;;;;;;;;;25.25;22.25;;;;;20.73;58.30;101860.19;4995655;28;45409;-90
2021/07/21 05:49:29;;;;;;;;;23.25;20.75;;;;;20.78;58.36;101863.41;4997336;28;45766;-89
2021/07/21 05:51:54;;;;;;;;;23.75;21.75;;;;;20.84;58.15;101868.31;5025819;28;45426;-89
2021/07/21 05:54:21;;;;;;;;;26.50;19.50;;;;;20.89;58.44;101870.69;5031144;28;45374;-90
2021/07/21 05:56:46;;;;;;;;;25.50;25.25;;;;;20.93;58.24;101878.31;5023911;28;45500;-89
2021/07/21 05:59:12;;;;;;;;;22.50;19.50;;;;;20.95;58.04;101863.22;4999955;28;48100;-89
2021/07/21 06:01:37;;;;;;;;;26.00;22.75;;;;;21.00;58.36;101870.00;4987302;28;45662;-89
2021/07/21 06:04:04;;;;;;;;;19.50;19.50;;;;;21.04;58.37;101871.53;5000654;28;44930;-90
2021/07/21 06:06:29;;;;;;;;;26.25;25.25;;;;;21.07;58.53;101872.16;5007980;28;45383;-89
2021/07/21 06:08:55;;;;;;;;;23.50;21.50;;;;;21.12;57.94;101866.59;5025078;28;46600;-89
2021/07/21 06:11:20;;;;;;;;;23.50;21.75;;;;;21.16;57.96;101881.31;5017356;28;45464;-90
2021/07/21 06:13:46;;;;;;;;;26.00;22.25;;;;;21.21;58.20;101881.88;5015279;28;45467;-89
2021/07/21 06:16:15;;;;;;;;;23.75;20.00;;;;;21.26;57.75;101881.63;5017261;28;45364;-90
2021/07/21 06:18:42;;;;;;;;;24.75;23.00;;;;;21.29;58.28;101878.75;5000700;28;47596;-89
2021/07/21 06:21:07;;;;;;;;;25.00;22.50;;;;;21.35;57.90;101882.81;5018258;28;45391;-89
2021/07/21 06:23:32;;;;;;;;;21.50;20.25;;;;;21.39;57.53;101884.34;5016224;28;45426;-90
2021/07/21 06:25:58;;;;;;;;;22.25;20.00;;;;;21.39;57.04;101892.28;5012857;28;45504;-89
2021/07/21 06:28:24;;;;;;;;;20.75;18.50;;;;;21.44;57.18;101892.81;4996356;28;47247;-89
2021/07/21 06:30:49;;;;;;;;;26.25;24.00;;;;;21.48;56.94;101898.78;4997796;28;45516;-90
2021/07/21 06:33:18;;;;;;;;;23.25;21.75;;;;;21.57;56.84;101899.97;4994515;28;45465;-89
2021/07/21 06:35:47;;;;;;;;;25.50;24.50;;;;;21.62;57.28;101900.53;4997819;28;45507;-89
2021/07/21 06:38:13;;;;;;;;;25.75;24.50;;;;;21.68;57.30;101904.56;4989868;28;45441;-89
2021/07/21 06:40:39;;;;;;;;;25.25;20.50;;;;;21.72;56.66;101908.75;4981737;28;45472;-89
2021/07/21 06:43:04;;;;;;;;;28.00;25.00;;;;;21.75;57.27;101911.19;4998180;28;45462;-89
2021/07/21 06:45:30;;;;;;;;;24.50;23.75;;;;;21.82;57.44;101920.47;5014899;28;45554;-90
2021/07/21 06:47:55;;;;;;;;;26.25;24.00;;;;;21.85;57.05;101914.09;4999980;28;47166;-89
2021/07/21 06:50:21;;;;;;;;;26.00;22.50;;;;;21.91;56.93;101918.13;5013194;28;45862;-89
2021/07/21 06:52:46;;;;;;;;;22.25;21.75;;;;;21.96;56.73;101918.69;5012684;28;46735;-89
2021/07/21 06:55:12;;;;;;;;;24.00;24.00;;;;;21.99;56.41;101914.03;5008214;28;45463;-90
2021/07/21 06:57:37;;;;;;;;;26.00;23.75;;;;;22.04;56.47;101913.75;5007780;28;45366;-90
2021/07/21 07:00:05;;;;;;;;;28.25;24.25;;;;;22.10;56.71;101916.00;5002330;28;45465;-90
2021/07/21 07:02:31;;;;;;;;;26.75;23.00;;;;;22.17;56.37;101921.72;5007796;28;45257;-92
2021/07/21 07:04:56;;;;;;;;;26.00;23.50;;;;;22.20;56.04;101921.50;4997271;28;45459;-92
2021/07/21 07:07:21;;;;;;;;;24.50;22.00;;;;;22.26;55.83;101920.28;4996822;28;47162;-93
2021/07/21 07:09:47;;;;;;;;;25.00;24.00;;;;;22.34;55.89;101925.03;5006674;28;46635;-92
2021/07/21 07:12:13;;;;;;;;;27.25;24.00;;;;;22.37;55.70;101924.84;4983745;28;45323;-92
2021/07/21 07:14:38;;;;;;;;;25.25;24.25;;;;;22.41;55.86;101915.72;4998547;28;45527;-93
2021/07/21 07:17:04;;;;;;;;;22.75;22.25;;;;;22.44;55.21;101918.16;5007616;28;48090;-93
2021/07/21 07:19:29;;;;;;;;;21.50;19.75;;;;;22.46;55.56;101920.69;5001273;28;45443;-94
2021/07/21 07:21:55;;;;;;;;;32.00;26.75;;;;;22.54;55.14;101923.72;5012099;28;45451;-93
2021/07/21 07:24:20;;;;;;;;;28.00;23.25;;;;;22.55;55.52;101914.81;4998621;28;45281;-94
2021/07/21 07:26:46;;;;;;;;;26.00;24.75;;;;;22.63;54.98;101917.78;4996806;28;47028;-93
2021/07/21 07:29:12;;;;;;;;;27.25;25.50;;;;;22.68;55.49;101923.59;5017686;28;45651;-94
2021/07/21 07:31:37;;;;;;;;;25.50;21.50;;;;;22.71;55.31;101919.06;5014772;28;45351;-94
2021/07/21 07:34:03;;;;;;;;;24.75;20.25;;;;;22.77;54.95;101924.78;4982346;28;45320;-93
2021/07/21 07:36:28;;;;;;;;;22.25;21.75;;;;;22.78;54.24;101918.50;5005581;28;47525;-93
2021/07/21 07:38:54;;;;;;;;;27.25;24.75;;;;;22.78;54.32;101915.84;4982014;28;45652;-93
2021/07/21 07:41:23;;;;;;;;;28.00;24.00;;;;;22.87;53.92;101924.16;4998252;28;45241;-93
2021/07/21 07:43:51;;;;;;;;;27.50;25.00;;;;;22.91;54.41;101920.31;4998507;28;45455;-93
2021/07/21 07:46:17;;;;;;;;;25.50;22.50;;;;;22.97;54.18;101922.53;5020671;28;47393;-93
2021/07/21 07:48:42;;;;;;;;;26.50;23.50;;;;;23.01;54.12;101917.88;5017558;28;45463;-94
2021/07/21 07:51:07;;;;;;;;;23.75;21.00;;;;;23.08;53.84;101919.13;5021180;28;45390;-93
2021/07/21 07:53:33;;;;;;;;;23.25;20.25;;;;;23.16;53.96;101915.91;5021466;28;45616;-94
2021/07/21 07:55:58;;;;;;;;;25.25;22.25;;;;;23.22;54.22;101920.78;4997913;28;46974;-94
2021/07/21 07:58:23;;;;;;;;;31.75;24.25;;;;;23.26;53.06;101914.31;5014554;28;45349;-93
2021/07/21 08:00:50;;;;;;;;;21.50;20.00;;;;;23.35;52.85;101915.47;5014389;28;45292;-93
2021/07/21 08:03:15;;;;;;;;;21.00;21.00;;;;;23.42;52.42;101924.69;5004126;28;45341;-93
2021/07/21 08:05:42;;;;;;;;;26.75;24.50;;;;;23.48;52.65;101915.44;5015734;28;47564;-93
2021/07/21 08:08:07;;;;;;;;;23.25;21.50;;;;;23.53;52.22;101915.09;4997948;28;45248;-94
2021/07/21 08:10:34;;;;;;;;;24.00;23.50;;;;;23.61;52.28;101920.72;4997894;28;45254;-94
2021/07/21 08:13:00;;;;;;;;;21.50;20.25;;;;;23.67;52.04;101920.25;4980931;28;45461;-94
2021/07/21 08:15:25;;;;;;;;;26.75;26.00;;;;;23.75;52.15;101914.38;5033315;28;47107;-93
2021/07/21 08:17:52;;;;;;;;;21.50;21.50;;;;;23.82;51.61;101917.41;5020397;28;45399;-95
2021/07/21 08:20:18;;;;;;;;;25.75;25.25;;;;;23.91;51.64;101919.41;5037250;28;45463;-94
2021/07/21 08:22:43;;;;;;;;;25.00;24.00;;;;;23.98;51.43;101917.97;5037409;28;44748;-94
2021/07/21 08:25:11;;;;;;;;;19.25;18.00;;;;;24.06;51.11;101916.56;5036944;28;47948;-94
2021/07/21 08:27:37;;;;;;;;;23.75;22.75;;;;;24.16;51.14;101912.25;5032556;28;45487;-94
2021/07/21 08:30:05;;;;;;;;;28.00;24.50;;;;;24.23;50.80;101918.84;5053947;28;45442;-93
2021/07/21 08:32:31;;;;;;;;;25.25;23.25;;;;;24.29;50.28;101917.50;5020834;28;45523;-94
2021/07/21 08:34:56;;;;;;;;;24.25;24.00;;;;;24.37;50.82;101925.75;5020284;28;47425;-93
2021/07/21 08:37:22;;;;;;;;;20.50;18.75;;;;;24.49;50.79;101931.09;5017666;28;45274;-93
2021/07/21 08:39:47;;;;;;;;;22.25;21.75;;;;;24.55;50.52;101919.97;5000838;28;45322;-93
2021/07/21 08:42:13;;;;;;;;;24.00;22.00;;;;;24.64;50.46;101921.94;5017491;28;45360;-94
2021/07/21 08:44:38;;;;;;;;;24.00;21.00;;;;;24.74;49.82;101918.53;5033422;28;47503;-94
2021/07/21 08:47:07;;;;;;;;;22.00;22.00;;;;;24.84;49.14;101918.72;5017285;28;45773;-94
2021/07/21 08:49:33;;;;;;;;;24.75;21.25;;;;;24.93;48.93;101916.16;5002064;28;44923;-94
2021/07/21 08:52:00;;;;;;;;;19.00;18.25;;;;;25.03;48.94;101918.09;4984882;28;45578;-94
2021/07/21 08:54:27;;;;;;;;;22.50;19.75;;;;;25.15;48.14;101921.59;4980565;28;48342;-93
2021/07/21 08:56:55;;;;;;;;;21.75;20.25;;;;;25.21;48.29;101916.63;4980632;28;45438;-93
2021/07/21 08:59:23;;;;;;;;;22.50;21.50;;;;;25.30;47.89;101916.84;4996982;28;45276;-94
2021/07/21 09:01:49;;;;;;;;;20.00;19.25;;;;;25.40;48.55;101914.31;4997743;28;45335;-94
2021/07/21 09:04:14;;;;;;;;;18.00;17.25;;;;;25.51;48.25;101914.28;4996742;28;47474;-95
2021/07/21 09:06:41;;;;;;;;;19.50;16.00;;;;;25.62;47.61;101908.09;4996971;28;45362;-93
2021/07/21 09:09:08;;;;;;;;;21.25;18.50;;;;;25.72;47.59;101918.81;4980644;28;45387;-94
2021/07/21 09:11:34;;;;;;;;;19.25;17.75;;;;;25.82;47.95;101919.75;4997094;28;45552;-94
2021/07/21 09:13:59;;;;;;;;;20.75;18.00;;;;;25.94;47.26;101925.03;4996227;28;47079;-94
2021/07/21 09:16:25;;;;;;;;;18.50;17.50;;;;;26.01;46.90;101924.41;4980564;28;45268;-94
2021/07/21 09:18:53;;;;;;;;;17.50;16.75;;;;;26.10;46.08;101919.28;4980278;28;45430;-93
2021/07/21 09:21:21;;;;;;;;;18.00;18.00;;;;;26.20;46.69;101920.16;4980711;28;45470;-95
2021/07/21 09:23:50;;;;;;;;;16.50;15.75;;;;;26.30;47.08;101932.78;5021284;28;47277;-95
2021/07/21 09:26:24;;;;;;;;;18.33;17.00;;;;;26.39;46.63;101924.81;5003207;28;45630;-95
2021/07/21 09:28:52;;;;;;;;;21.50;19.00;;;;;26.46;47.18;101925.16;5003750;28;45265;-94
2021/07/21 09:31:31;;;;;;;;;21.50;20.00;;;;;26.57;46.10;101926.06;5003604;28;45304;-95
2021/07/21 09:33:57;;;;;;;;;23.00;20.25;;;;;26.68;46.09;101923.31;5003182;28;47249;-94
2021/07/21 09:36:22;;;;;;;;;19.75;18.00;;;;;26.78;46.14;101918.84;5019045;28;45365;-93
2021/07/21 09:38:48;;;;;;;;;17.75;17.75;;;;;26.88;45.93;101918.06;5020048;28;45334;-94
2021/07/21 09:41:16;;;;;;;;;19.50;16.25;;;;;26.99;45.78;101915.31;5036690;28;45373;-93
2021/07/21 09:43:42;;;;;;;;;19.25;18.75;;;;;27.09;46.24;101915.34;5036120;28;47652;-94
2021/07/21 09:46:11;;;;;;;;;19.25;16.75;;;;;27.24;46.05;101923.81;5005561;28;45172;-94
2021/07/21 09:48:40;;;;;;;;;19.75;19.25;;;;;27.37;45.59;101922.72;5001249;28;45597;-93
2021/07/21 09:51:07;;;;;;;;;17.33;17.00;;;;;27.45;45.62;101922.88;5000333;28;45275;-94
2021/07/21 09:53:46;;;;;;;;;19.75;15.25;;;;;27.57;44.01;101923.59;5016178;28;47401;-94
2021/07/21 09:56:12;;;;;;;;;17.25;17.00;;;;;27.65;44.83;101907.72;5016806;28;45482;-94
2021/07/21 09:58:38;;;;;;;;;19.25;16.50;;;;;27.80;45.20;101921.53;4983298;28;45270;-94
2021/07/21 10:01:04;;;;;;;;;17.75;15.75;;;;;27.89;43.94;101914.47;4983808;28;45566;-94
2021/07/21 10:03:34;;;;;;;;;19.75;18.25;;;;;28.04;44.60;101906.03;4999543;28;48091;-93
2021/07/21 10:06:02;;;;;;;;;19.33;18.33;;;;;28.17;44.07;101911.91;4982852;28;45922;-94
2021/07/21 10:08:34;;;;;;;;;16.67;16.33;;;;;28.27;42.91;101911.91;5035602;28;45375;-93
2021/07/21 10:11:20;;;;;;;;;18.50;16.25;;;;;28.39;43.32;101909.94;5002814;28;45497;-94
2021/07/21 10:13:46;;;;;;;;;19.33;18.33;;;;;28.52;42.40;101907.75;5002405;28;47079;-95
2021/07/21 10:16:30;;;;;;;;;19.33;17.67;;;;;28.66;42.53;101909.13;5002693;28;45978;-94
2021/07/21 10:19:04;;;;;;;;;18.67;17.00;;;;;28.76;42.62;101900.22;5012866;28;45917;-94
2021/07/21 10:21:29;;;;;;;;;15.33;15.33;;;;;28.90;43.09;101906.94;5036014;28;45563;-93
2021/07/21 10:23:56;;;;;;;;;14.33;14.33;;;;;29.03;42.43;101912.81;5035864;28;47142;-94
2021/07/21 10:26:21;;;;;;;;;14.33;12.67;;;;;29.15;41.55;101905.41;5038954;28;45453;-93
2021/07/21 10:28:48;;;;;;;;;17.67;14.33;;;;;29.26;41.31;101907.03;5005041;28;46043;-94
2021/07/21 10:31:13;;;;;;;;;15.33;14.33;;;;;29.39;40.97;101909.31;4983187;28;45362;-94
2021/07/21 10:33:39;;;;;;;;;13.00;12.50;;;;;29.49;40.73;101909.31;4982522;28;47025;-93
2021/07/21 10:36:05;;;;;;;;;17.00;14.00;;;;;29.64;41.00;101912.28;4982008;28;45274;-94
2021/07/21 10:38:31;;;;;;;;;18.00;12.25;;;;;29.77;40.97;101909.22;4999046;28;45416;-94
2021/07/21 10:40:57;;;;;;;;;18.50;16.75;;;;;29.90;41.18;101906.16;4999403;28;45367;-94
2021/07/21 10:43:28;;;;;;;;;15.75;15.50;;;;;30.06;40.55;101907.25;4998226;28;47304;-95
2021/07/21 10:45:54;;;;;;;;;19.25;18.00;;;;;30.18;40.04;101911.41;4999014;28;45325;-93
2021/07/21 10:48:30;;;;;;;;;15.50;14.75;;;;;30.31;39.93;101904.78;4999054;28;45433;-95
2021/07/21 10:51:07;;;;;;;;;17.00;17.00;;;;;30.44;39.79;101907.03;5002131;28;45305;-94
2021/07/21 10:53:54;;;;;;;;;15.00;14.50;;;;;30.59;40.38;101902.72;5018784;28;48266;-94
2021/07/21 10:59:11;;;;;;;;;16.50;15.50;;;;;30.88;39.74;101906.94;5019565;28;45336;-93
2021/07/21 11:01:39;;;;;;;;;15.50;15.50;;;;;31.00;39.40;101893.22;5003124;28;45273;-94
2021/07/21 11:04:05;;;;;;;;;17.25;17.00;;;;;31.11;39.15;101890.22;4998124;28;48198;-94
2021/07/21 11:06:46;;;;;;;;;14.25;13.25;;;;;31.23;37.99;101892.59;4998214;28;45791;-94
2021/07/21 11:09:22;;;;;;;;;16.50;15.75;;;;;31.32;38.78;101897.84;4998500;28;45173;-94
2021/07/21 11:11:54;;;;;;;;;16.50;14.50;;;;;31.43;38.26;101896.66;4982021;28;45258;-95
2021/07/21 11:14:25;;;;;;;;;19.75;16.75;;;;;31.59;37.48;101898.53;5015204;28;47684;-94
2021/07/21 11:17:12;;;;;;;;;14.50;12.00;;;;;31.72;37.40;101892.66;5014690;28;45558;-94
2021/07/21 11:19:51;;;;;;;;;15.50;13.50;;;;;31.85;37.02;101894.03;4998630;28;44807;-94